createdAt,value
2018-05-29T00:02:25.136Z,22.30
2018-05-29T00:04:53.236Z,22.30
2018-05-29T00:07:21.304Z,22.30
2018-05-29T00:09:49.392Z,22.10
2018-05-29T00:12:18.304Z,22.10
2018-05-29T00:14:46.387Z,22.10
2018-05-29T00:17:14.498Z,22.20
2018-05-29T00:19:42.580Z,22.10
2018-05-29T00:22:10.667Z,22.10
2018-05-29T00:24:38.865Z,22.00
2018-05-29T00:27:06.966Z,21.90
2018-05-29T00:29:35.047Z,21.90
2018-05-29T00:32:03.128Z,21.90
2018-05-29T00:34:31.291Z,21.80
2018-05-29T00:37:00.104Z,21.60
2018-05-29T00:39:28.186Z,21.60
2018-05-29T00:41:57.033Z,21.40
2018-05-29T00:44:25.125Z,21.40
2018-05-29T00:46:53.436Z,21.30
2018-05-29T00:49:22.299Z,21.30
2018-05-29T00:51:50.404Z,21.10
2018-05-29T00:54:20.192Z,21.00
2018-05-29T00:56:48.288Z,21.10
2018-05-29T00:59:16.352Z,20.90
2018-05-29T01:01:44.469Z,20.70
2018-05-29T01:04:12.549Z,20.90
2018-05-29T01:06:40.635Z,20.90
2018-05-29T01:09:08.714Z,20.90
2018-05-29T01:11:36.803Z,20.90
2018-05-29T01:14:04.881Z,20.90
2018-05-29T01:16:33.006Z,21.00
2018-05-29T01:19:01.084Z,20.80
2018-05-29T01:21:29.171Z,20.90
2018-05-29T01:23:57.493Z,20.80
2018-05-29T01:26:25.564Z,21.00
2018-05-29T01:28:53.660Z,20.90
2018-05-29T01:31:21.741Z,20.90
2018-05-29T01:33:49.849Z,20.90
2018-05-29T01:36:18.317Z,20.80
2018-05-29T01:38:46.661Z,20.80
2018-05-29T01:41:14.892Z,20.70
2018-05-29T01:43:43.689Z,20.60
2018-05-29T01:46:11.774Z,20.50
2018-05-29T01:48:39.847Z,20.50
2018-05-29T01:51:07.993Z,20.50
2018-05-29T01:53:36.091Z,20.40
2018-05-29T01:56:04.969Z,20.50
2018-05-29T01:58:33.040Z,20.50
2018-05-29T02:01:01.904Z,20.50
2018-05-29T02:03:30.002Z,20.20
2018-05-29T02:05:58.090Z,20.20
2018-05-29T02:08:27.975Z,20.20
2018-05-29T02:10:56.087Z,20.30
2018-05-29T02:13:24.160Z,20.50
2018-05-29T02:15:52.267Z,20.30
2018-05-29T02:18:20.345Z,20.20
2018-05-29T02:20:48.439Z,20.50
2018-05-29T02:23:16.530Z,20.50
2018-05-29T02:25:45.378Z,20.50
2018-05-29T02:28:13.471Z,20.60
2018-05-29T02:30:41.549Z,20.40
2018-05-29T02:33:09.668Z,20.30
2018-05-29T02:35:38.149Z,20.40
2018-05-29T02:38:06.236Z,20.40
2018-05-29T02:40:34.320Z,20.40
2018-05-29T02:43:02.412Z,20.50
2018-05-29T02:45:34.119Z,20.60
2018-05-29T02:48:02.195Z,20.60
2018-05-29T02:50:30.288Z,20.70
2018-05-29T02:52:58.389Z,20.70
2018-05-29T02:55:26.471Z,20.70
2018-05-29T02:57:54.569Z,20.30
2018-05-29T03:00:22.649Z,20.10
2018-05-29T03:02:50.732Z,20.00
2018-05-29T03:05:18.851Z,20.10
2018-05-29T03:07:46.923Z,20.00
2018-05-29T03:10:15.021Z,19.90
2018-05-29T03:12:45.934Z,19.70
2018-05-29T03:15:14.032Z,19.80
2018-05-29T03:17:42.883Z,19.80
2018-05-29T03:20:11.014Z,19.70
2018-05-29T03:22:39.094Z,19.60
2018-05-29T03:25:07.184Z,19.60
2018-05-29T03:27:35.274Z,19.50
2018-05-29T03:30:03.380Z,19.50
2018-05-29T03:32:31.471Z,19.50
2018-05-29T03:34:59.552Z,19.40
2018-05-29T03:37:27.645Z,19.20
2018-05-29T03:39:56.320Z,19.30
2018-05-29T03:42:24.668Z,19.30
2018-05-29T03:44:53.672Z,19.10
2018-05-29T03:47:21.757Z,19.10
2018-05-29T03:49:50.756Z,19.00
2018-05-29T03:52:18.852Z,19.10
2018-05-29T03:54:46.939Z,19.00
2018-05-29T03:57:15.051Z,19.10
2018-05-29T03:59:43.161Z,19.00
2018-05-29T04:02:11.239Z,19.00
2018-05-29T04:04:39.335Z,19.00
2018-05-29T04:07:07.408Z,18.90
2018-05-29T04:09:35.492Z,19.00
2018-05-29T04:12:04.357Z,19.00
2018-05-29T04:14:32.450Z,19.00
2018-05-29T04:17:01.377Z,19.10
2018-05-29T04:19:29.411Z,19.10
2018-05-29T04:21:57.509Z,19.10
2018-05-29T04:24:25.647Z,19.00
2018-05-29T04:26:53.745Z,19.00
2018-05-29T04:29:21.841Z,18.90
2018-05-29T04:31:49.928Z,18.80
2018-05-29T04:34:18.015Z,18.90
2018-05-29T04:36:46.144Z,18.90
2018-05-29T04:39:14.233Z,19.00
2018-05-29T04:41:43.502Z,19.10
2018-05-29T04:44:11.604Z,19.00
2018-05-29T04:46:39.692Z,19.30
2018-05-29T04:49:08.380Z,19.50
2018-05-29T04:51:36.465Z,19.40
2018-05-29T04:54:04.563Z,19.50
2018-05-29T04:56:32.695Z,19.30
2018-05-29T04:59:01.076Z,19.40
2018-05-29T05:01:30.283Z,19.50
2018-05-29T05:03:58.971Z,19.50
2018-05-29T05:06:27.067Z,19.60
2018-05-29T05:08:55.181Z,19.70
2018-05-29T05:11:23.260Z,19.70
2018-05-29T05:13:51.350Z,19.50
2018-05-29T05:16:21.882Z,19.50
2018-05-29T05:18:49.987Z,19.50
2018-05-29T05:21:18.116Z,19.50
2018-05-29T05:23:46.193Z,19.50
2018-05-29T05:26:14.343Z,19.50
2018-05-29T05:28:42.512Z,19.40
2018-05-29T05:31:11.378Z,19.40
2018-05-29T05:33:39.453Z,19.60
2018-05-29T05:36:07.569Z,19.80
2018-05-29T05:38:37.749Z,20.00
2018-05-29T05:41:05.969Z,19.90
2018-05-29T05:43:34.140Z,19.90
2018-05-29T05:46:02.249Z,20.10
2018-05-29T05:48:30.346Z,20.20
2018-05-29T05:50:58.515Z,20.30
2018-05-29T05:53:26.633Z,20.30
2018-05-29T05:55:55.668Z,20.40
2018-05-29T05:58:23.808Z,20.50
2018-05-29T06:00:51.899Z,20.60
2018-05-29T06:03:20.028Z,20.60
2018-05-29T06:05:49.721Z,20.70
2018-05-29T06:08:17.827Z,20.70
2018-05-29T06:10:45.912Z,20.80
2018-05-29T06:13:17.156Z,20.80
2018-05-29T06:15:45.327Z,20.90
2018-05-29T06:18:13.433Z,20.90
2018-05-29T06:20:42.149Z,21.00
2018-05-29T06:23:10.296Z,21.00
2018-05-29T06:25:38.369Z,21.10
2018-05-29T06:28:06.479Z,21.10
2018-05-29T06:30:34.640Z,21.20
2018-05-29T06:33:02.752Z,21.20
2018-05-29T06:35:31.563Z,21.30
2018-05-29T06:37:59.636Z,21.40
2018-05-29T06:40:27.784Z,21.50
2018-05-29T06:42:55.868Z,21.50
2018-05-29T06:45:23.969Z,21.50
2018-05-29T06:47:52.367Z,21.60
2018-05-29T06:50:21.236Z,21.60
2018-05-29T06:52:49.348Z,21.70
2018-05-29T06:55:17.499Z,21.70
2018-05-29T06:57:46.404Z,21.80
2018-05-29T07:00:14.444Z,21.80
2018-05-29T07:02:42.527Z,21.90
2018-05-29T07:05:11.392Z,21.90
2018-05-29T07:07:39.501Z,22.00
2018-05-29T07:10:07.609Z,22.10
2018-05-29T07:12:35.716Z,22.10
2018-05-29T07:15:03.830Z,22.10
2018-05-29T07:17:31.931Z,22.10
2018-05-29T07:20:00.801Z,22.20
2018-05-29T07:22:28.885Z,22.20
2018-05-29T07:24:56.994Z,22.30
2018-05-29T07:27:25.083Z,22.30
2018-05-29T07:29:53.182Z,22.30
2018-05-29T07:32:21.270Z,22.30
2018-05-29T07:34:50.485Z,22.30
2018-05-29T07:37:18.568Z,22.40
2018-05-29T07:39:46.676Z,22.40
2018-05-29T07:42:15.517Z,22.50
2018-05-29T07:44:43.655Z,22.50
2018-05-29T07:47:12.524Z,22.60
2018-05-29T07:49:40.605Z,22.70
2018-05-29T07:52:09.461Z,22.80
2018-05-29T07:54:37.547Z,22.80
2018-05-29T07:57:05.659Z,22.80
2018-05-29T07:59:33.771Z,22.80
2018-05-29T08:02:01.876Z,22.90
2018-05-29T08:04:29.977Z,22.90
2018-05-29T08:06:58.140Z,22.90
2018-05-29T08:09:26.989Z,22.90
2018-05-29T08:11:55.103Z,23.00
2018-05-29T08:14:23.957Z,23.00
2018-05-29T08:16:52.035Z,23.10
2018-05-29T08:19:20.145Z,23.10
2018-05-29T08:21:48.279Z,23.20
2018-05-29T08:24:16.600Z,23.20
2018-05-29T08:26:44.680Z,23.10
2018-05-29T08:29:13.523Z,23.20
2018-05-29T08:31:41.606Z,23.30
2018-05-29T08:34:09.717Z,23.30
2018-05-29T08:36:38.185Z,23.30
2018-05-29T08:39:07.204Z,23.40
2018-05-29T08:41:35.287Z,23.50
2018-05-29T08:44:05.111Z,23.60
2018-05-29T08:46:33.200Z,23.60
2018-05-29T08:49:01.288Z,23.60
2018-05-29T08:51:30.159Z,23.70
2018-05-29T08:53:58.250Z,23.70
2018-05-29T08:56:27.231Z,23.80
2018-05-29T08:58:55.312Z,23.80
2018-05-29T09:01:23.427Z,23.80
2018-05-29T09:03:51.507Z,23.90
2018-05-29T09:06:20.285Z,23.90
2018-05-29T09:08:48.425Z,23.80
2018-05-29T09:11:17.308Z,23.80
2018-05-29T09:13:45.414Z,23.80
2018-05-29T09:16:14.473Z,23.80
2018-05-29T09:18:42.933Z,23.80
2018-05-29T09:21:11.026Z,23.80
2018-05-29T09:23:39.126Z,23.80
2018-05-29T09:26:08.758Z,24.10
2018-05-29T09:28:36.863Z,24.10
2018-05-29T09:31:04.950Z,24.20
2018-05-29T09:33:33.047Z,24.20
2018-05-29T09:36:01.153Z,24.40
2018-05-29T09:38:29.229Z,24.40
2018-05-29T09:40:57.326Z,24.40
2018-05-29T09:43:25.402Z,24.40
2018-05-29T09:45:53.591Z,24.50
2018-05-29T09:48:22.434Z,24.60
2018-05-29T09:50:50.482Z,24.70
2018-05-29T09:53:18.580Z,24.70
2018-05-29T09:55:46.688Z,24.70
2018-05-29T09:58:15.787Z,24.60
2018-05-29T10:00:44.686Z,24.90
2018-05-29T10:03:12.800Z,25.00
2018-05-29T10:05:41.188Z,24.90
2018-05-29T10:08:09.294Z,25.00
2018-05-29T10:10:37.370Z,25.00
2018-05-29T10:13:05.512Z,25.10
2018-05-29T10:15:33.621Z,25.10
2018-05-29T10:18:01.712Z,25.10
2018-05-29T10:20:29.864Z,25.00
2018-05-29T10:22:58.016Z,25.10
2018-05-29T10:25:26.588Z,25.20
2018-05-29T10:27:54.661Z,25.40
2018-05-29T10:30:22.775Z,25.40
2018-05-29T10:32:50.891Z,25.40
2018-05-29T10:35:18.985Z,25.40
2018-05-29T10:37:47.472Z,25.60
2018-05-29T10:40:15.551Z,25.60
2018-05-29T10:42:44.624Z,25.80
2018-05-29T10:45:13.620Z,25.90
2018-05-29T10:47:41.705Z,25.90
2018-05-29T10:50:09.863Z,25.90
2018-05-29T10:52:37.951Z,26.00
2018-05-29T10:55:06.123Z,26.10
2018-05-29T10:57:34.257Z,26.40
2018-05-29T11:00:02.348Z,26.40
2018-05-29T11:02:30.468Z,26.40
2018-05-29T11:04:58.571Z,26.40
2018-05-29T11:07:26.888Z,26.40
2018-05-29T11:09:55.008Z,26.60
2018-05-29T11:12:23.116Z,26.60
2018-05-29T11:14:51.272Z,26.60
2018-05-29T11:17:20.264Z,26.50
2018-05-29T11:19:48.373Z,26.60
2018-05-29T11:22:16.447Z,26.50
2018-05-29T11:24:44.520Z,26.50
2018-05-29T11:27:12.626Z,26.60
2018-05-29T11:29:40.704Z,26.70
2018-05-29T11:32:08.854Z,26.70
2018-05-29T11:34:36.922Z,26.80
2018-05-29T11:37:05.042Z,26.80
2018-05-29T11:39:33.128Z,26.90
2018-05-29T11:42:01.293Z,26.80
2018-05-29T11:44:29.384Z,26.80
2018-05-29T11:46:57.485Z,26.90
2018-05-29T11:49:25.589Z,27.10
2018-05-29T11:51:55.360Z,27.40
2018-05-29T11:54:23.477Z,27.80
2018-05-29T11:56:51.572Z,28.00
2018-05-29T11:59:19.677Z,28.30
2018-05-29T12:01:47.819Z,28.60
2018-05-29T12:04:15.911Z,28.90
2018-05-29T12:06:44.171Z,29.10
2018-05-29T12:09:12.294Z,29.10
2018-05-29T12:11:40.491Z,29.30
2018-05-29T12:14:09.362Z,29.60
2018-05-29T12:16:38.276Z,29.90
2018-05-29T12:19:06.478Z,30.10
2018-05-29T12:21:34.612Z,30.20
2018-05-29T12:24:03.469Z,30.30
2018-05-29T12:26:31.571Z,30.40
2018-05-29T12:29:00.432Z,30.60
2018-05-29T12:31:28.549Z,30.60
2018-05-29T12:33:56.649Z,30.30
2018-05-29T12:36:24.740Z,30.10
2018-05-29T12:38:52.831Z,30.00
2018-05-29T12:41:20.917Z,30.00
2018-05-29T12:43:49.019Z,30.20
2018-05-29T12:46:17.152Z,30.10
2018-05-29T12:48:45.212Z,30.50
2018-05-29T12:51:13.288Z,30.80
2018-05-29T12:53:41.405Z,30.90
2018-05-29T12:56:09.484Z,31.00
2018-05-29T12:58:37.593Z,31.30
2018-05-29T13:01:06.180Z,31.10
2018-05-29T13:03:34.294Z,30.90
2018-05-29T13:06:02.414Z,30.70
2018-05-29T13:08:30.504Z,30.70
2018-05-29T13:10:58.624Z,30.70
2018-05-29T13:13:26.716Z,30.40
2018-05-29T13:15:54.810Z,30.00
2018-05-29T13:18:22.897Z,29.90
2018-05-29T13:20:51.016Z,29.80
2018-05-29T13:23:19.098Z,29.60
2018-05-29T13:25:47.202Z,29.60
2018-05-29T13:28:15.381Z,29.60
2018-05-29T13:30:43.447Z,29.60
2018-05-29T13:33:12.487Z,29.40
2018-05-29T13:35:47.003Z,29.30
2018-05-29T13:38:16.251Z,29.40
2018-05-29T13:40:44.357Z,29.40
2018-05-29T13:43:12.661Z,29.50
2018-05-29T13:45:41.509Z,29.50
2018-05-29T13:48:09.621Z,29.50
2018-05-29T13:50:38.465Z,29.40
2018-05-29T13:53:06.776Z,29.40
2018-05-29T13:55:37.007Z,29.30
2018-05-29T13:58:05.870Z,29.30
2018-05-29T14:00:33.950Z,29.20
2018-05-29T14:03:02.092Z,29.00
2018-05-29T14:05:30.206Z,28.90
2018-05-29T14:07:58.292Z,28.70
2018-05-29T14:10:27.162Z,28.70
2018-05-29T14:12:55.307Z,28.30
2018-05-29T14:15:23.391Z,28.00
2018-05-29T14:17:51.476Z,27.50
2018-05-29T14:20:19.580Z,27.20
2018-05-29T14:22:47.661Z,27.10
2018-05-29T14:25:15.836Z,26.60
2018-05-29T14:27:43.921Z,26.30
2018-05-29T14:30:12.019Z,26.30
2018-05-29T14:32:40.109Z,26.10
2018-05-29T14:35:08.260Z,25.70
2018-05-29T14:37:38.153Z,25.30
2018-05-29T14:40:06.258Z,25.10
2018-05-29T14:42:34.339Z,25.00
2018-05-29T14:45:04.535Z,25.10
2018-05-29T14:47:32.651Z,25.10
2018-05-29T14:50:00.721Z,25.00
2018-05-29T14:52:28.811Z,25.00
2018-05-29T14:54:57.651Z,24.80
2018-05-29T14:57:25.768Z,25.00
2018-05-29T14:59:53.910Z,24.70
2018-05-29T15:02:22.057Z,23.80
2018-05-29T15:04:51.068Z,23.50
2018-05-29T15:07:19.187Z,22.70
2018-05-29T15:09:51.502Z,22.10
2018-05-29T15:12:19.581Z,22.10
2018-05-29T15:14:47.676Z,22.00
2018-05-29T15:17:15.840Z,22.00
2018-05-29T15:19:43.934Z,21.80
2018-05-29T15:22:12.827Z,21.60
2018-05-29T15:24:41.008Z,21.20
2018-05-29T15:27:09.096Z,21.10
2018-05-29T15:29:37.196Z,20.50
2018-05-29T15:32:05.285Z,19.70
2018-05-29T15:34:33.367Z,19.50
2018-05-29T15:37:01.457Z,20.00
2018-05-29T15:39:30.294Z,19.50
2018-05-29T15:41:58.388Z,19.40
2018-05-29T15:44:26.549Z,19.30
2018-05-29T15:46:54.646Z,19.20
2018-05-29T15:49:22.762Z,19.50
2018-05-29T15:51:50.864Z,19.50
2018-05-29T15:54:18.961Z,19.80
2018-05-29T15:56:47.079Z,19.40
2018-05-29T15:59:15.963Z,19.50
2018-05-29T16:01:48.500Z,19.40
2018-05-29T16:04:16.588Z,19.30
2018-05-29T16:06:44.683Z,19.20
2018-05-29T16:09:13.780Z,19.10
2018-05-29T16:11:42.709Z,19.50
2018-05-29T16:14:10.872Z,19.60
2018-05-29T16:16:38.903Z,19.80
2018-05-29T16:19:06.991Z,19.90
2018-05-29T16:21:35.063Z,19.80
2018-05-29T16:24:03.225Z,19.90
2018-05-29T16:26:32.117Z,20.00
2018-05-29T16:29:00.156Z,19.90
2018-05-29T16:31:28.255Z,19.80
2018-05-29T16:33:57.369Z,19.60
2018-05-29T16:36:29.784Z,19.90
2018-05-29T16:38:58.818Z,19.90
2018-05-29T16:41:27.689Z,19.70
2018-05-29T16:43:55.757Z,20.00
2018-05-29T16:46:23.857Z,20.10
2018-05-29T16:48:52.804Z,20.10
2018-05-29T16:51:20.881Z,19.80
2018-05-29T16:53:49.701Z,20.00
2018-05-29T16:56:17.813Z,19.90
2018-05-29T16:58:45.941Z,20.10
2018-05-29T17:01:14.307Z,20.20
2018-05-29T17:03:42.610Z,20.10
2018-05-29T17:06:10.907Z,20.20
2018-05-29T17:08:41.269Z,20.30
2018-05-29T17:11:09.356Z,20.30
2018-05-29T17:13:37.473Z,20.30
2018-05-29T17:16:06.569Z,20.40
2018-05-29T17:18:35.452Z,20.40
2018-05-29T17:21:04.339Z,20.30
2018-05-29T17:23:33.688Z,20.30
2018-05-29T17:26:01.912Z,20.40
2018-05-29T17:28:29.997Z,20.20
2018-05-29T17:31:01.333Z,20.30
2018-05-29T17:33:30.180Z,20.40
2018-05-29T17:35:59.196Z,20.50
2018-05-29T17:38:27.290Z,20.40
2018-05-29T17:40:55.416Z,20.50
2018-05-29T17:43:23.509Z,20.50
2018-05-29T17:45:51.613Z,20.50
2018-05-29T17:48:21.313Z,20.50
2018-05-29T17:50:49.456Z,20.50
2018-05-29T17:53:17.911Z,20.50
2018-05-29T17:55:46.029Z,20.50
2018-05-29T17:58:14.119Z,20.50
2018-05-29T18:00:43.105Z,20.30
2018-05-29T18:03:11.378Z,20.00
2018-05-29T18:05:39.840Z,19.70
2018-05-29T18:08:08.194Z,19.80
2018-05-29T18:10:36.412Z,19.90
2018-05-29T18:13:05.296Z,19.80
2018-05-29T18:15:34.507Z,20.00
2018-05-29T18:18:02.597Z,20.20
2018-05-29T18:20:31.968Z,20.20
2018-05-29T18:23:00.470Z,20.30
2018-05-29T18:25:29.327Z,20.40
2018-05-29T18:27:57.456Z,20.50
2018-05-29T18:30:25.588Z,20.40
2018-05-29T18:32:53.938Z,20.30
2018-05-29T18:35:22.194Z,20.20
2018-05-29T18:37:50.307Z,20.20
2018-05-29T18:40:18.429Z,20.20
2018-05-29T18:42:46.516Z,20.20
2018-05-29T18:45:15.408Z,20.30
2018-05-29T18:47:43.491Z,20.40
2018-05-29T18:50:11.732Z,20.40
2018-05-29T18:52:39.835Z,20.30
2018-05-29T18:55:08.909Z,20.30
2018-05-29T18:57:37.123Z,20.30
2018-05-29T19:00:05.640Z,20.40
2018-05-29T19:02:33.768Z,20.50
2018-05-29T19:05:02.558Z,20.50
2018-05-29T19:07:30.657Z,20.50
2018-05-29T19:09:59.063Z,20.50
2018-05-29T19:12:27.262Z,20.50
2018-05-29T19:14:56.051Z,20.50
2018-05-29T19:17:24.172Z,20.40
2018-05-29T19:19:52.423Z,20.50
2018-05-29T19:22:21.216Z,20.40
2018-05-29T19:24:49.880Z,20.30
2018-05-29T19:27:18.139Z,20.40
2018-05-29T19:29:46.240Z,20.40
2018-05-29T19:32:14.633Z,20.40
2018-05-29T19:34:43.158Z,20.30
2018-05-29T19:37:12.079Z,20.30
2018-05-29T19:39:40.187Z,20.20
2018-05-29T19:42:08.280Z,20.20
2018-05-29T19:44:36.427Z,20.30
2018-05-29T19:47:04.659Z,20.30
2018-05-29T19:49:33.301Z,20.20
2018-05-29T19:52:02.407Z,20.30
2018-05-29T19:54:30.605Z,20.30
2018-05-29T19:56:58.837Z,20.30
2018-05-29T19:59:26.989Z,20.30
2018-05-29T20:01:55.033Z,20.30
2018-05-29T20:04:23.347Z,20.20
2018-05-29T20:06:51.891Z,20.20
2018-05-29T20:09:19.966Z,20.30
2018-05-29T20:11:48.096Z,20.10
2018-05-29T20:14:16.475Z,20.20
2018-05-29T20:16:44.605Z,20.20
2018-05-29T20:19:13.029Z,20.20
2018-05-29T20:21:41.160Z,20.30
2018-05-29T20:24:09.256Z,20.20
2018-05-29T20:26:37.448Z,20.20
2018-05-29T20:29:05.532Z,20.30
2018-05-29T20:31:33.635Z,20.20
2018-05-29T20:34:01.984Z,20.10
2018-05-29T20:36:30.279Z,20.10
2018-05-29T20:38:58.749Z,20.10
2018-05-29T20:41:27.664Z,20.10
2018-05-29T20:43:55.957Z,20.10
2018-05-29T20:46:25.971Z,20.00
2018-05-29T20:48:54.203Z,20.00
2018-05-29T20:51:22.300Z,20.00
2018-05-29T20:53:50.415Z,19.90
2018-05-29T20:56:18.527Z,20.00
2018-05-29T20:58:46.615Z,19.90
2018-05-29T21:01:15.458Z,19.70
2018-05-29T21:03:43.585Z,19.60
2018-05-29T21:06:12.425Z,19.70
2018-05-29T21:08:40.520Z,19.80
2018-05-29T21:11:08.605Z,19.70
2018-05-29T21:13:49.125Z,19.50
2018-05-29T21:16:17.194Z,19.70
2018-05-29T21:18:46.348Z,19.70
2018-05-29T21:21:14.529Z,19.70
2018-05-29T21:23:43.329Z,19.60
2018-05-29T21:26:11.443Z,19.60
2018-05-29T21:28:39.541Z,19.60
2018-05-29T21:31:08.100Z,19.50
2018-05-29T21:33:36.191Z,19.50
2018-05-29T21:36:04.284Z,19.50
2018-05-29T21:38:32.385Z,19.70
2018-05-29T21:41:01.287Z,19.80
2018-05-29T21:43:29.526Z,19.80
2018-05-29T21:45:57.601Z,19.80
2018-05-29T21:48:25.847Z,19.80
2018-05-29T21:50:54.008Z,19.80
2018-05-29T21:53:22.081Z,19.50
2018-05-29T21:55:50.548Z,19.70
2018-05-29T21:58:18.672Z,19.70
2018-05-29T22:00:47.599Z,19.60
2018-05-29T22:03:15.745Z,19.60
2018-05-29T22:05:43.841Z,19.60
2018-05-29T22:08:11.928Z,19.70
2018-05-29T22:10:40.053Z,19.70
2018-05-29T22:13:08.199Z,19.70
2018-05-29T22:15:36.406Z,19.70
2018-05-29T22:18:05.346Z,19.60
2018-05-29T22:20:33.513Z,19.60
2018-05-29T22:23:01.599Z,19.50
2018-05-29T22:25:30.260Z,19.40
2018-05-29T22:27:58.339Z,19.10
2018-05-29T22:30:30.020Z,19.00
2018-05-29T22:32:58.120Z,19.00
2018-05-29T22:35:27.119Z,19.00
2018-05-29T22:37:56.460Z,18.90
2018-05-29T22:40:24.535Z,18.70
2018-05-29T22:42:53.567Z,19.00
2018-05-29T22:45:21.662Z,19.00
2018-05-29T22:47:49.799Z,19.00
2018-05-29T22:50:17.871Z,19.00
2018-05-29T22:52:46.151Z,19.00
2018-05-29T22:55:14.233Z,19.00
2018-05-29T22:57:43.108Z,18.90
2018-05-29T23:00:11.251Z,18.90
2018-05-29T23:02:39.328Z,19.00
2018-05-29T23:05:07.797Z,19.10
2018-05-29T23:07:36.125Z,19.10
2018-05-29T23:10:04.637Z,18.80
2018-05-29T23:12:32.739Z,18.60
2018-05-29T23:15:00.860Z,18.60
2018-05-29T23:17:29.727Z,18.50
2018-05-29T23:19:57.811Z,18.60
2018-05-29T23:22:26.751Z,18.80
2018-05-29T23:24:54.880Z,18.80
2018-05-29T23:27:23.141Z,18.80
2018-05-29T23:29:51.235Z,18.80
2018-05-29T23:32:20.131Z,18.90
2018-05-29T23:34:48.984Z,19.00
2018-05-29T23:37:17.077Z,18.80
2018-05-29T23:39:45.156Z,18.80
2018-05-29T23:42:14.047Z,18.60
2018-05-29T23:44:42.127Z,18.40
2018-05-29T23:47:10.986Z,18.50
2018-05-29T23:49:39.061Z,18.50
2018-05-29T23:52:07.432Z,18.30
2018-05-29T23:54:35.511Z,18.40
2018-05-29T23:57:03.703Z,18.10
2018-05-29T23:59:31.821Z,18.10
